sensor_id;sensor_type;location;lat;lon;timestamp;P1;durP1;ratioP1;P2;durP2;ratioP2
56114;SDS011;41988;53.020;6.576;2023-01-23T00:00:45;13.70;;;6.90;;
56114;SDS011;41988;53.020;6.576;2023-01-23T00:03:30;15.33;;;6.90;;
56114;SDS011;41988;53.020;6.576;2023-01-23T00:06:16;16.77;;;6.63;;
56114;SDS011;41988;53.020;6.576;2023-01-23T00:09:00;14.87;;;7.17;;
56114;SDS011;41988;53.020;6.576;2023-01-23T00:11:45;18.20;;;7.50;;
56114;SDS011;41988;53.020;6.576;2023-01-23T00:14:29;16.17;;;7.47;;
56114;SDS011;41988;53.020;6.576;2023-01-23T00:17:14;16.03;;;7.90;;
56114;SDS011;41988;53.020;6.576;2023-01-23T00:19:59;12.70;;;7.37;;
56114;SDS011;41988;53.020;6.576;2023-01-23T00:22:43;15.87;;;7.50;;
56114;SDS011;41988;53.020;6.576;2023-01-23T00:25:28;13.50;;;8.03;;
56114;SDS011;41988;53.020;6.576;2023-01-23T00:28:12;15.73;;;7.80;;
56114;SDS011;41988;53.020;6.576;2023-01-23T00:31:04;15.23;;;7.27;;
56114;SDS011;41988;53.020;6.576;2023-01-23T00:33:51;16.90;;;7.47;;
56114;SDS011;41988;53.020;6.576;2023-01-23T00:36:37;20.83;;;7.73;;
56114;SDS011;41988;53.020;6.576;2023-01-23T00:39:22;14.73;;;7.53;;
56114;SDS011;41988;53.020;6.576;2023-01-23T00:42:06;19.90;;;7.37;;
56114;SDS011;41988;53.020;6.576;2023-01-23T00:44:51;15.40;;;7.93;;
56114;SDS011;41988;53.020;6.576;2023-01-23T00:47:35;13.53;;;7.70;;
56114;SDS011;41988;53.020;6.576;2023-01-23T00:50:20;18.97;;;7.57;;
56114;SDS011;41988;53.020;6.576;2023-01-23T00:53:04;14.63;;;7.13;;
56114;SDS011;41988;53.020;6.576;2023-01-23T00:55:49;19.83;;;8.43;;
56114;SDS011;41988;53.020;6.576;2023-01-23T00:58:33;12.70;;;7.80;;
56114;SDS011;41988;53.020;6.576;2023-01-23T01:01:18;21.60;;;8.03;;
56114;SDS011;41988;53.020;6.576;2023-01-23T01:04:05;14.03;;;7.10;;
56114;SDS011;41988;53.020;6.576;2023-01-23T01:06:49;14.53;;;8.23;;
56114;SDS011;41988;53.020;6.576;2023-01-23T01:09:34;12.03;;;6.70;;
56114;SDS011;41988;53.020;6.576;2023-01-23T01:12:18;14.03;;;7.80;;
56114;SDS011;41988;53.020;6.576;2023-01-23T01:15:03;15.30;;;6.87;;
56114;SDS011;41988;53.020;6.576;2023-01-23T01:17:48;14.83;;;7.77;;
56114;SDS011;41988;53.020;6.576;2023-01-23T01:20:39;15.57;;;7.80;;
56114;SDS011;41988;53.020;6.576;2023-01-23T01:23:24;11.40;;;6.73;;
56114;SDS011;41988;53.020;6.576;2023-01-23T01:26:09;14.70;;;6.87;;
56114;SDS011;41988;53.020;6.576;2023-01-23T01:28:54;15.90;;;7.90;;
56114;SDS011;41988;53.020;6.576;2023-01-23T01:31:38;19.53;;;7.57;;
56114;SDS011;41988;53.020;6.576;2023-01-23T01:34:22;13.97;;;7.73;;
56114;SDS011;41988;53.020;6.576;2023-01-23T01:37:07;13.83;;;7.40;;
56114;SDS011;41988;53.020;6.576;2023-01-23T01:39:51;19.43;;;7.30;;
56114;SDS011;41988;53.020;6.576;2023-01-23T01:42:55;14.83;;;8.03;;
56114;SDS011;41988;53.020;6.576;2023-01-23T01:51:57;17.33;;;7.73;;
56114;SDS011;41988;53.020;6.576;2023-01-23T01:55:02;15.83;;;8.33;;
56114;SDS011;41988;53.020;6.576;2023-01-23T01:57:48;13.90;;;7.10;;
56114;SDS011;41988;53.020;6.576;2023-01-23T02:00:36;15.00;;;7.17;;
56114;SDS011;41988;53.020;6.576;2023-01-23T02:03:21;12.60;;;7.77;;
56114;SDS011;41988;53.020;6.576;2023-01-23T02:06:07;20.10;;;8.13;;
56114;SDS011;41988;53.020;6.576;2023-01-23T02:08:54;19.83;;;8.83;;
56114;SDS011;41988;53.020;6.576;2023-01-23T02:11:51;21.00;;;8.60;;
56114;SDS011;41988;53.020;6.576;2023-01-23T02:14:36;15.93;;;8.63;;
56114;SDS011;41988;53.020;6.576;2023-01-23T02:17:21;14.30;;;7.80;;
56114;SDS011;41988;53.020;6.576;2023-01-23T02:22:54;14.07;;;7.93;;
56114;SDS011;41988;53.020;6.576;2023-01-23T02:26:00;12.97;;;8.10;;
56114;SDS011;41988;53.020;6.576;2023-01-23T02:28:49;16.20;;;7.67;;
56114;SDS011;41988;53.020;6.576;2023-01-23T02:31:34;15.37;;;8.20;;
56114;SDS011;41988;53.020;6.576;2023-01-23T02:34:19;16.40;;;8.33;;
56114;SDS011;41988;53.020;6.576;2023-01-23T02:37:05;18.17;;;8.87;;
56114;SDS011;41988;53.020;6.576;2023-01-23T02:39:51;21.83;;;9.47;;
56114;SDS011;41988;53.020;6.576;2023-01-23T02:42:35;21.43;;;8.30;;
56114;SDS011;41988;53.020;6.576;2023-01-23T02:45:23;18.53;;;7.93;;
56114;SDS011;41988;53.020;6.576;2023-01-23T02:48:08;18.17;;;8.57;;
56114;SDS011;41988;53.020;6.576;2023-01-23T02:50:52;13.40;;;8.60;;
56114;SDS011;41988;53.020;6.576;2023-01-23T02:53:37;17.47;;;10.00;;
56114;SDS011;41988;53.020;6.576;2023-01-23T02:56:21;16.30;;;9.43;;
56114;SDS011;41988;53.020;6.576;2023-01-23T02:59:06;15.80;;;8.43;;
56114;SDS011;41988;53.020;6.576;2023-01-23T03:02:10;18.60;;;9.75;;
56114;SDS011;41988;53.020;6.576;2023-01-23T03:04:54;15.17;;;9.03;;
56114;SDS011;41988;53.020;6.576;2023-01-23T03:07:39;17.47;;;9.10;;
56114;SDS011;41988;53.020;6.576;2023-01-23T03:10:25;16.80;;;9.13;;
56114;SDS011;41988;53.020;6.576;2023-01-23T03:13:11;16.93;;;8.63;;
56114;SDS011;41988;53.020;6.576;2023-01-23T03:15:56;18.80;;;8.97;;
56114;SDS011;41988;53.020;6.576;2023-01-23T03:18:40;17.97;;;9.50;;
56114;SDS011;41988;53.020;6.576;2023-01-23T03:21:25;20.53;;;9.60;;
56114;SDS011;41988;53.020;6.576;2023-01-23T03:24:10;19.10;;;9.97;;
56114;SDS011;41988;53.020;6.576;2023-01-23T03:26:55;19.40;;;9.90;;
56114;SDS011;41988;53.020;6.576;2023-01-23T03:29:40;18.10;;;9.47;;
56114;SDS011;41988;53.020;6.576;2023-01-23T03:32:43;19.50;;;9.10;;
56114;SDS011;41988;53.020;6.576;2023-01-23T03:35:28;20.47;;;9.83;;
56114;SDS011;41988;53.020;6.576;2023-01-23T03:38:12;15.70;;;9.07;;
56114;SDS011;41988;53.020;6.576;2023-01-23T03:41:00;18.53;;;10.10;;
56114;SDS011;41988;53.020;6.576;2023-01-23T03:46:50;17.27;;;9.45;;
56114;SDS011;41988;53.020;6.576;2023-01-23T03:49:34;20.43;;;9.63;;
56114;SDS011;41988;53.020;6.576;2023-01-23T03:52:19;21.30;;;9.13;;
56114;SDS011;41988;53.020;6.576;2023-01-23T03:55:04;18.60;;;10.70;;
56114;SDS011;41988;53.020;6.576;2023-01-23T03:57:48;18.13;;;10.17;;
56114;SDS011;41988;53.020;6.576;2023-01-23T04:00:33;19.47;;;9.00;;
56114;SDS011;41988;53.020;6.576;2023-01-23T04:03:17;15.77;;;9.13;;
56114;SDS011;41988;53.020;6.576;2023-01-23T04:06:02;17.90;;;9.80;;
56114;SDS011;41988;53.020;6.576;2023-01-23T04:08:46;16.33;;;9.47;;
56114;SDS011;41988;53.020;6.576;2023-01-23T04:11:31;17.37;;;10.07;;
56114;SDS011;41988;53.020;6.576;2023-01-23T04:14:15;26.90;;;10.27;;
56114;SDS011;41988;53.020;6.576;2023-01-23T04:17:00;19.93;;;10.13;;
56114;SDS011;41988;53.020;6.576;2023-01-23T04:19:45;20.23;;;10.47;;
56114;SDS011;41988;53.020;6.576;2023-01-23T04:22:29;21.70;;;9.90;;
56114;SDS011;41988;53.020;6.576;2023-01-23T04:25:14;22.60;;;10.57;;
56114;SDS011;41988;53.020;6.576;2023-01-23T04:27:58;14.20;;;9.23;;
56114;SDS011;41988;53.020;6.576;2023-01-23T04:30:43;17.87;;;10.40;;
56114;SDS011;41988;53.020;6.576;2023-01-23T04:33:28;20.23;;;10.40;;
56114;SDS011;41988;53.020;6.576;2023-01-23T04:36:13;21.77;;;11.73;;
56114;SDS011;41988;53.020;6.576;2023-01-23T04:38:57;17.50;;;9.77;;
56114;SDS011;41988;53.020;6.576;2023-01-23T04:41:42;21.50;;;11.50;;
56114;SDS011;41988;53.020;6.576;2023-01-23T04:44:26;22.70;;;10.93;;
56114;SDS011;41988;53.020;6.576;2023-01-23T04:47:11;19.97;;;10.60;;
56114;SDS011;41988;53.020;6.576;2023-01-23T04:49:56;20.80;;;10.63;;
56114;SDS011;41988;53.020;6.576;2023-01-23T04:52:40;20.47;;;10.70;;
56114;SDS011;41988;53.020;6.576;2023-01-23T04:55:24;19.70;;;10.03;;
56114;SDS011;41988;53.020;6.576;2023-01-23T04:58:10;19.83;;;9.90;;
56114;SDS011;41988;53.020;6.576;2023-01-23T05:01:05;21.50;;;10.53;;
56114;SDS011;41988;53.020;6.576;2023-01-23T05:03:50;21.07;;;11.40;;
56114;SDS011;41988;53.020;6.576;2023-01-23T05:06:35;21.80;;;10.67;;
56114;SDS011;41988;53.020;6.576;2023-01-23T05:09:20;16.47;;;10.40;;
56114;SDS011;41988;53.020;6.576;2023-01-23T05:12:04;22.93;;;10.97;;
56114;SDS011;41988;53.020;6.576;2023-01-23T05:14:49;21.00;;;10.03;;
56114;SDS011;41988;53.020;6.576;2023-01-23T05:17:34;19.57;;;11.47;;
56114;SDS011;41988;53.020;6.576;2023-01-23T05:20:18;17.73;;;11.37;;
56114;SDS011;41988;53.020;6.576;2023-01-23T05:23:03;18.93;;;11.13;;
56114;SDS011;41988;53.020;6.576;2023-01-23T05:25:47;18.40;;;10.97;;
56114;SDS011;41988;53.020;6.576;2023-01-23T05:28:32;19.40;;;10.50;;
56114;SDS011;41988;53.020;6.576;2023-01-23T05:31:16;19.50;;;11.00;;
56114;SDS011;41988;53.020;6.576;2023-01-23T05:34:01;20.40;;;11.07;;
56114;SDS011;41988;53.020;6.576;2023-01-23T05:36:45;20.23;;;11.93;;
56114;SDS011;41988;53.020;6.576;2023-01-23T05:39:30;24.67;;;12.07;;
56114;SDS011;41988;53.020;6.576;2023-01-23T05:42:15;21.43;;;11.43;;
56114;SDS011;41988;53.020;6.576;2023-01-23T05:45:00;17.87;;;10.47;;
56114;SDS011;41988;53.020;6.576;2023-01-23T05:47:45;21.93;;;10.23;;
56114;SDS011;41988;53.020;6.576;2023-01-23T05:50:29;20.30;;;11.23;;
56114;SDS011;41988;53.020;6.576;2023-01-23T05:53:14;21.93;;;11.47;;
56114;SDS011;41988;53.020;6.576;2023-01-23T05:55:58;19.47;;;10.63;;
56114;SDS011;41988;53.020;6.576;2023-01-23T05:58:43;21.50;;;10.67;;
56114;SDS011;41988;53.020;6.576;2023-01-23T06:01:27;18.50;;;10.03;;
56114;SDS011;41988;53.020;6.576;2023-01-23T06:04:12;17.47;;;10.37;;
56114;SDS011;41988;53.020;6.576;2023-01-23T06:06:58;22.07;;;11.37;;
56114;SDS011;41988;53.020;6.576;2023-01-23T06:09:43;23.73;;;12.30;;
56114;SDS011;41988;53.020;6.576;2023-01-23T06:12:27;22.73;;;11.33;;
56114;SDS011;41988;53.020;6.576;2023-01-23T06:15:12;18.50;;;11.43;;
56114;SDS011;41988;53.020;6.576;2023-01-23T06:17:57;16.33;;;10.20;;
56114;SDS011;41988;53.020;6.576;2023-01-23T06:20:42;19.43;;;9.10;;
56114;SDS011;41988;53.020;6.576;2023-01-23T06:23:26;16.80;;;10.20;;
56114;SDS011;41988;53.020;6.576;2023-01-23T06:26:12;18.43;;;10.67;;
56114;SDS011;41988;53.020;6.576;2023-01-23T06:28:56;18.67;;;9.60;;
56114;SDS011;41988;53.020;6.576;2023-01-23T06:31:41;21.77;;;12.23;;
56114;SDS011;41988;53.020;6.576;2023-01-23T06:34:26;14.73;;;9.43;;
56114;SDS011;41988;53.020;6.576;2023-01-23T06:37:10;18.03;;;10.33;;
56114;SDS011;41988;53.020;6.576;2023-01-23T06:39:54;19.60;;;10.60;;
56114;SDS011;41988;53.020;6.576;2023-01-23T06:42:39;22.20;;;11.03;;
56114;SDS011;41988;53.020;6.576;2023-01-23T06:45:24;20.63;;;11.07;;
56114;SDS011;41988;53.020;6.576;2023-01-23T06:48:12;19.37;;;10.27;;
56114;SDS011;41988;53.020;6.576;2023-01-23T06:51:01;16.97;;;9.93;;
56114;SDS011;41988;53.020;6.576;2023-01-23T06:53:46;19.60;;;10.57;;
56114;SDS011;41988;53.020;6.576;2023-01-23T06:56:30;16.33;;;9.60;;
56114;SDS011;41988;53.020;6.576;2023-01-23T06:59:15;19.17;;;10.13;;
56114;SDS011;41988;53.020;6.576;2023-01-23T07:01:59;20.73;;;11.13;;
56114;SDS011;41988;53.020;6.576;2023-01-23T07:04:44;20.70;;;10.43;;
56114;SDS011;41988;53.020;6.576;2023-01-23T07:07:28;18.87;;;10.17;;
56114;SDS011;41988;53.020;6.576;2023-01-23T07:10:13;18.73;;;10.33;;
56114;SDS011;41988;53.020;6.576;2023-01-23T07:12:57;25.00;;;11.80;;
56114;SDS011;41988;53.020;6.576;2023-01-23T07:15:44;19.30;;;10.30;;
56114;SDS011;41988;53.020;6.576;2023-01-23T07:18:29;17.83;;;9.77;;
56114;SDS011;41988;53.020;6.576;2023-01-23T07:21:15;20.10;;;9.93;;
56114;SDS011;41988;53.020;6.576;2023-01-23T07:23:59;18.23;;;9.87;;
56114;SDS011;41988;53.020;6.576;2023-01-23T07:26:44;17.37;;;9.10;;
56114;SDS011;41988;53.020;6.576;2023-01-23T07:29:28;18.00;;;10.00;;
56114;SDS011;41988;53.020;6.576;2023-01-23T07:32:13;21.03;;;11.10;;
56114;SDS011;41988;53.020;6.576;2023-01-23T07:34:58;16.87;;;10.40;;
56114;SDS011;41988;53.020;6.576;2023-01-23T07:37:42;17.93;;;10.17;;
56114;SDS011;41988;53.020;6.576;2023-01-23T07:40:27;19.13;;;10.40;;
56114;SDS011;41988;53.020;6.576;2023-01-23T07:43:12;18.17;;;10.17;;
56114;SDS011;41988;53.020;6.576;2023-01-23T07:45:57;21.10;;;11.17;;
56114;SDS011;41988;53.020;6.576;2023-01-23T07:48:42;20.80;;;11.03;;
56114;SDS011;41988;53.020;6.576;2023-01-23T07:51:26;24.57;;;10.80;;
56114;SDS011;41988;53.020;6.576;2023-01-23T07:54:11;23.20;;;11.23;;
56114;SDS011;41988;53.020;6.576;2023-01-23T07:56:55;17.50;;;10.63;;
56114;SDS011;41988;53.020;6.576;2023-01-23T07:59:40;24.07;;;10.97;;
56114;SDS011;41988;53.020;6.576;2023-01-23T08:02:24;16.37;;;9.70;;
56114;SDS011;41988;53.020;6.576;2023-01-23T08:05:09;19.67;;;9.27;;
56114;SDS011;41988;53.020;6.576;2023-01-23T08:07:53;18.87;;;10.13;;
56114;SDS011;41988;53.020;6.576;2023-01-23T08:10:38;19.33;;;10.07;;
56114;SDS011;41988;53.020;6.576;2023-01-23T08:13:23;20.03;;;10.83;;
56114;SDS011;41988;53.020;6.576;2023-01-23T08:16:07;18.73;;;9.70;;
56114;SDS011;41988;53.020;6.576;2023-01-23T08:18:52;18.53;;;11.77;;
56114;SDS011;41988;53.020;6.576;2023-01-23T08:21:37;20.20;;;10.23;;
56114;SDS011;41988;53.020;6.576;2023-01-23T08:24:21;18.77;;;9.90;;
56114;SDS011;41988;53.020;6.576;2023-01-23T08:27:06;16.00;;;9.20;;
56114;SDS011;41988;53.020;6.576;2023-01-23T08:29:50;16.47;;;9.33;;
56114;SDS011;41988;53.020;6.576;2023-01-23T08:32:35;17.50;;;9.40;;
56114;SDS011;41988;53.020;6.576;2023-01-23T08:35:20;19.40;;;9.20;;
56114;SDS011;41988;53.020;6.576;2023-01-23T08:38:04;18.57;;;9.63;;
56114;SDS011;41988;53.020;6.576;2023-01-23T08:40:51;16.97;;;9.77;;
56114;SDS011;41988;53.020;6.576;2023-01-23T08:43:37;17.37;;;9.83;;
56114;SDS011;41988;53.020;6.576;2023-01-23T08:46:23;14.40;;;9.00;;
56114;SDS011;41988;53.020;6.576;2023-01-23T08:49:08;16.90;;;9.80;;
56114;SDS011;41988;53.020;6.576;2023-01-23T08:51:53;15.17;;;8.70;;
56114;SDS011;41988;53.020;6.576;2023-01-23T08:54:39;14.43;;;9.30;;
56114;SDS011;41988;53.020;6.576;2023-01-23T08:57:23;19.70;;;8.93;;
56114;SDS011;41988;53.020;6.576;2023-01-23T09:00:08;15.80;;;8.83;;
56114;SDS011;41988;53.020;6.576;2023-01-23T09:02:53;12.93;;;8.00;;
56114;SDS011;41988;53.020;6.576;2023-01-23T09:05:38;20.00;;;9.67;;
56114;SDS011;41988;53.020;6.576;2023-01-23T09:08:22;14.57;;;8.77;;
56114;SDS011;41988;53.020;6.576;2023-01-23T09:11:08;11.93;;;7.87;;
56114;SDS011;41988;53.020;6.576;2023-01-23T09:13:53;13.40;;;8.43;;
56114;SDS011;41988;53.020;6.576;2023-01-23T09:16:38;18.43;;;8.40;;
56114;SDS011;41988;53.020;6.576;2023-01-23T09:19:23;12.87;;;8.10;;
56114;SDS011;41988;53.020;6.576;2023-01-23T09:22:08;12.87;;;7.63;;
56114;SDS011;41988;53.020;6.576;2023-01-23T09:24:52;16.40;;;8.40;;
56114;SDS011;41988;53.020;6.576;2023-01-23T09:27:37;9.97;;;7.17;;
56114;SDS011;41988;53.020;6.576;2023-01-23T09:30:21;14.60;;;7.47;;
56114;SDS011;41988;53.020;6.576;2023-01-23T09:33:06;13.50;;;7.90;;
56114;SDS011;41988;53.020;6.576;2023-01-23T09:35:51;13.17;;;7.27;;
56114;SDS011;41988;53.020;6.576;2023-01-23T09:38:36;11.40;;;7.53;;
56114;SDS011;41988;53.020;6.576;2023-01-23T09:41:24;11.83;;;7.07;;
56114;SDS011;41988;53.020;6.576;2023-01-23T09:44:12;12.27;;;6.53;;
56114;SDS011;41988;53.020;6.576;2023-01-23T09:47:03;12.83;;;7.43;;
56114;SDS011;41988;53.020;6.576;2023-01-23T09:50:17;13.87;;;7.00;;
56114;SDS011;41988;53.020;6.576;2023-01-23T09:53:13;18.37;;;7.50;;
56114;SDS011;41988;53.020;6.576;2023-01-23T09:59:07;13.33;;;7.27;;
56114;SDS011;41988;53.020;6.576;2023-01-23T10:02:00;10.47;;;6.53;;
56114;SDS011;41988;53.020;6.576;2023-01-23T10:04:48;13.07;;;7.33;;
56114;SDS011;41988;53.020;6.576;2023-01-23T10:07:39;12.03;;;6.60;;
56114;SDS011;41988;53.020;6.576;2023-01-23T10:10:52;11.87;;;7.07;;
56114;SDS011;41988;53.020;6.576;2023-01-23T10:14:01;11.10;;;6.50;;
56114;SDS011;41988;53.020;6.576;2023-01-23T10:16:52;11.03;;;7.10;;
56114;SDS011;41988;53.020;6.576;2023-01-23T10:25:44;12.93;;;8.10;;
56114;SDS011;41988;53.020;6.576;2023-01-23T10:28:31;10.73;;;5.90;;
56114;SDS011;41988;53.020;6.576;2023-01-23T10:40:18;10.07;;;6.23;;
56114;SDS011;41988;53.020;6.576;2023-01-23T10:43:25;16.10;;;8.00;;
56114;SDS011;41988;53.020;6.576;2023-01-23T10:46:15;18.67;;;7.33;;
56114;SDS011;41988;53.020;6.576;2023-01-23T10:48:59;10.13;;;6.90;;
56114;SDS011;41988;53.020;6.576;2023-01-23T10:51:46;13.27;;;7.60;;
56114;SDS011;41988;53.020;6.576;2023-01-23T10:54:30;10.00;;;6.83;;
56114;SDS011;41988;53.020;6.576;2023-01-23T10:57:29;13.93;;;7.07;;
56114;SDS011;41988;53.020;6.576;2023-01-23T11:06:04;11.10;;;6.93;;
56114;SDS011;41988;53.020;6.576;2023-01-23T11:11:36;11.27;;;6.27;;
56114;SDS011;41988;53.020;6.576;2023-01-23T11:14:20;9.77;;;6.20;;
56114;SDS011;41988;53.020;6.576;2023-01-23T11:17:14;10.77;;;7.20;;
56114;SDS011;41988;53.020;6.576;2023-01-23T11:25:55;12.50;;;7.00;;
56114;SDS011;41988;53.020;6.576;2023-01-23T11:28:47;15.33;;;7.13;;
56114;SDS011;41988;53.020;6.576;2023-01-23T11:31:32;10.00;;;7.00;;
56114;SDS011;41988;53.020;6.576;2023-01-23T11:34:17;13.13;;;7.67;;
56114;SDS011;41988;53.020;6.576;2023-01-23T11:37:11;10.63;;;7.37;;
56114;SDS011;41988;53.020;6.576;2023-01-23T11:40:17;11.90;;;7.13;;
56114;SDS011;41988;53.020;6.576;2023-01-23T11:43:04;13.83;;;8.03;;
56114;SDS011;41988;53.020;6.576;2023-01-23T11:56:02;11.53;;;6.73;;
56114;SDS011;41988;53.020;6.576;2023-01-23T12:07:29;13.17;;;7.80;;
56114;SDS011;41988;53.020;6.576;2023-01-23T12:10:33;11.25;;;8.02;;
56114;SDS011;41988;53.020;6.576;2023-01-23T12:16:37;11.70;;;8.00;;
56114;SDS011;41988;53.020;6.576;2023-01-23T12:20:05;11.70;;;7.50;;
56114;SDS011;41988;53.020;6.576;2023-01-23T12:25:36;12.73;;;8.13;;
56114;SDS011;41988;53.020;6.576;2023-01-23T12:28:46;12.17;;;7.53;;
56114;SDS011;41988;53.020;6.576;2023-01-23T12:31:45;24.17;;;10.23;;
56114;SDS011;41988;53.020;6.576;2023-01-23T12:34:51;15.30;;;8.60;;
56114;SDS011;41988;53.020;6.576;2023-01-23T12:41:12;12.43;;;7.90;;
56114;SDS011;41988;53.020;6.576;2023-01-23T12:46:52;14.10;;;8.53;;
56114;SDS011;41988;53.020;6.576;2023-01-23T12:49:57;14.13;;;9.20;;
56114;SDS011;41988;53.020;6.576;2023-01-23T12:52:50;15.50;;;9.13;;
56114;SDS011;41988;53.020;6.576;2023-01-23T12:56:06;13.60;;;8.83;;
56114;SDS011;41988;53.020;6.576;2023-01-23T13:05:42;13.27;;;8.53;;
56114;SDS011;41988;53.020;6.576;2023-01-23T13:08:35;16.10;;;8.67;;
56114;SDS011;41988;53.020;6.576;2023-01-23T13:17:28;16.37;;;10.03;;
56114;SDS011;41988;53.020;6.576;2023-01-23T13:20:36;17.30;;;10.20;;
56114;SDS011;41988;53.020;6.576;2023-01-23T13:23:59;13.83;;;9.53;;
56114;SDS011;41988;53.020;6.576;2023-01-23T13:30:37;16.13;;;9.95;;
56114;SDS011;41988;53.020;6.576;2023-01-23T13:36:13;20.83;;;10.87;;
56114;SDS011;41988;53.020;6.576;2023-01-23T13:45:16;14.63;;;10.27;;
56114;SDS011;41988;53.020;6.576;2023-01-23T13:48:34;16.60;;;11.20;;
56114;SDS011;41988;53.020;6.576;2023-01-23T13:51:49;16.80;;;10.73;;
56114;SDS011;41988;53.020;6.576;2023-01-23T13:54:34;15.17;;;9.50;;
56114;SDS011;41988;53.020;6.576;2023-01-23T13:57:37;19.83;;;10.17;;
56114;SDS011;41988;53.020;6.576;2023-01-23T14:00:22;15.50;;;9.40;;
56114;SDS011;41988;53.020;6.576;2023-01-23T14:06:11;15.87;;;9.17;;
56114;SDS011;41988;53.020;6.576;2023-01-23T14:08:55;16.77;;;8.87;;
56114;SDS011;41988;53.020;6.576;2023-01-23T14:11:40;14.50;;;8.60;;
56114;SDS011;41988;53.020;6.576;2023-01-23T14:14:25;14.17;;;9.23;;
56114;SDS011;41988;53.020;6.576;2023-01-23T14:17:28;12.93;;;7.70;;
56114;SDS011;41988;53.020;6.576;2023-01-23T14:20:15;14.33;;;8.90;;
56114;SDS011;41988;53.020;6.576;2023-01-23T14:23:01;11.77;;;8.10;;
56114;SDS011;41988;53.020;6.576;2023-01-23T14:25:46;12.40;;;7.63;;
56114;SDS011;41988;53.020;6.576;2023-01-23T14:28:30;12.83;;;7.27;;
56114;SDS011;41988;53.020;6.576;2023-01-23T14:31:21;14.47;;;8.13;;
56114;SDS011;41988;53.020;6.576;2023-01-23T14:34:16;12.87;;;8.17;;
56114;SDS011;41988;53.020;6.576;2023-01-23T14:37:03;16.20;;;7.80;;
56114;SDS011;41988;53.020;6.576;2023-01-23T14:39:49;15.43;;;8.67;;
56114;SDS011;41988;53.020;6.576;2023-01-23T14:42:34;13.03;;;7.67;;
56114;SDS011;41988;53.020;6.576;2023-01-23T14:45:19;13.80;;;8.33;;
56114;SDS011;41988;53.020;6.576;2023-01-23T14:48:04;13.70;;;8.23;;
56114;SDS011;41988;53.020;6.576;2023-01-23T14:50:59;13.57;;;8.27;;
56114;SDS011;41988;53.020;6.576;2023-01-23T14:56:44;12.03;;;7.77;;
56114;SDS011;41988;53.020;6.576;2023-01-23T14:59:30;16.23;;;8.03;;
56114;SDS011;41988;53.020;6.576;2023-01-23T15:08:02;11.00;;;7.23;;
56114;SDS011;41988;53.020;6.576;2023-01-23T15:10:49;13.73;;;8.90;;
56114;SDS011;41988;53.020;6.576;2023-01-23T15:13:35;15.63;;;9.13;;
56114;SDS011;41988;53.020;6.576;2023-01-23T15:16:33;14.63;;;8.40;;
56114;SDS011;41988;53.020;6.576;2023-01-23T15:19:21;13.60;;;7.63;;
56114;SDS011;41988;53.020;6.576;2023-01-23T15:22:14;12.03;;;8.70;;
56114;SDS011;41988;53.020;6.576;2023-01-23T15:34:21;12.87;;;7.90;;
56114;SDS011;41988;53.020;6.576;2023-01-23T15:39:58;12.37;;;7.57;;
56114;SDS011;41988;53.020;6.576;2023-01-23T15:45:50;11.90;;;7.97;;
56114;SDS011;41988;53.020;6.576;2023-01-23T15:48:36;14.83;;;8.00;;
56114;SDS011;41988;53.020;6.576;2023-01-23T15:51:20;13.90;;;8.50;;
56114;SDS011;41988;53.020;6.576;2023-01-23T15:54:05;15.03;;;8.80;;
56114;SDS011;41988;53.020;6.576;2023-01-23T15:56:50;25.30;;;14.47;;
56114;SDS011;41988;53.020;6.576;2023-01-23T15:59:35;20.23;;;12.27;;
56114;SDS011;41988;53.020;6.576;2023-01-23T16:02:20;26.27;;;13.27;;
56114;SDS011;41988;53.020;6.576;2023-01-23T16:05:06;20.97;;;10.97;;
56114;SDS011;41988;53.020;6.576;2023-01-23T16:07:51;25.27;;;13.13;;
56114;SDS011;41988;53.020;6.576;2023-01-23T16:10:37;33.80;;;16.37;;
56114;SDS011;41988;53.020;6.576;2023-01-23T16:13:22;26.63;;;15.37;;
56114;SDS011;41988;53.020;6.576;2023-01-23T16:16:16;20.57;;;12.73;;
56114;SDS011;41988;53.020;6.576;2023-01-23T16:19:01;24.43;;;11.60;;
56114;SDS011;41988;53.020;6.576;2023-01-23T16:21:45;22.60;;;11.87;;
56114;SDS011;41988;53.020;6.576;2023-01-23T16:24:33;21.87;;;13.83;;
56114;SDS011;41988;53.020;6.576;2023-01-23T16:27:21;21.50;;;13.77;;
56114;SDS011;41988;53.020;6.576;2023-01-23T16:30:14;18.77;;;12.27;;
56114;SDS011;41988;53.020;6.576;2023-01-23T16:33:02;21.30;;;13.23;;
56114;SDS011;41988;53.020;6.576;2023-01-23T16:35:47;20.07;;;11.93;;
56114;SDS011;41988;53.020;6.576;2023-01-23T16:38:33;28.90;;;14.37;;
56114;SDS011;41988;53.020;6.576;2023-01-23T16:41:17;24.93;;;13.50;;
56114;SDS011;41988;53.020;6.576;2023-01-23T16:44:02;21.07;;;11.73;;
56114;SDS011;41988;53.020;6.576;2023-01-23T16:46:47;19.40;;;12.43;;
56114;SDS011;41988;53.020;6.576;2023-01-23T16:49:32;20.90;;;13.83;;
56114;SDS011;41988;53.020;6.576;2023-01-23T16:52:17;21.07;;;12.43;;
56114;SDS011;41988;53.020;6.576;2023-01-23T16:55:03;20.90;;;12.23;;
56114;SDS011;41988;53.020;6.576;2023-01-23T16:57:54;21.03;;;13.03;;
56114;SDS011;41988;53.020;6.576;2023-01-23T17:00:40;23.40;;;12.43;;
56114;SDS011;41988;53.020;6.576;2023-01-23T17:03:25;17.03;;;11.07;;
56114;SDS011;41988;53.020;6.576;2023-01-23T17:06:13;17.00;;;10.70;;
56114;SDS011;41988;53.020;6.576;2023-01-23T17:08:58;19.57;;;11.57;;
56114;SDS011;41988;53.020;6.576;2023-01-23T17:14:28;17.30;;;11.30;;
56114;SDS011;41988;53.020;6.576;2023-01-23T17:17:15;21.57;;;11.27;;
56114;SDS011;41988;53.020;6.576;2023-01-23T17:20:00;19.90;;;11.63;;
56114;SDS011;41988;53.020;6.576;2023-01-23T17:22:48;23.73;;;11.77;;
56114;SDS011;41988;53.020;6.576;2023-01-23T17:25:32;20.97;;;12.10;;
56114;SDS011;41988;53.020;6.576;2023-01-23T17:28:18;18.57;;;12.10;;
56114;SDS011;41988;53.020;6.576;2023-01-23T17:31:02;18.20;;;10.53;;
56114;SDS011;41988;53.020;6.576;2023-01-23T17:33:48;22.43;;;10.90;;
56114;SDS011;41988;53.020;6.576;2023-01-23T17:36:35;19.97;;;10.83;;
56114;SDS011;41988;53.020;6.576;2023-01-23T17:39:20;17.30;;;9.97;;
56114;SDS011;41988;53.020;6.576;2023-01-23T17:42:04;16.30;;;10.73;;
56114;SDS011;41988;53.020;6.576;2023-01-23T17:44:48;17.30;;;11.40;;
56114;SDS011;41988;53.020;6.576;2023-01-23T17:47:33;16.70;;;10.87;;
56114;SDS011;41988;53.020;6.576;2023-01-23T17:50:19;22.10;;;12.73;;
56114;SDS011;41988;53.020;6.576;2023-01-23T17:53:07;22.03;;;12.40;;
56114;SDS011;41988;53.020;6.576;2023-01-23T17:55:52;16.63;;;10.43;;
56114;SDS011;41988;53.020;6.576;2023-01-23T17:58:37;19.00;;;11.57;;
56114;SDS011;41988;53.020;6.576;2023-01-23T18:01:22;25.37;;;14.13;;
56114;SDS011;41988;53.020;6.576;2023-01-23T18:04:10;25.20;;;16.37;;
56114;SDS011;41988;53.020;6.576;2023-01-23T18:06:58;30.00;;;14.67;;
56114;SDS011;41988;53.020;6.576;2023-01-23T18:09:43;18.97;;;11.63;;
56114;SDS011;41988;53.020;6.576;2023-01-23T18:12:29;17.90;;;11.67;;
56114;SDS011;41988;53.020;6.576;2023-01-23T18:15:22;21.50;;;12.33;;
56114;SDS011;41988;53.020;6.576;2023-01-23T18:18:21;22.43;;;12.60;;
56114;SDS011;41988;53.020;6.576;2023-01-23T18:21:19;18.10;;;12.13;;
56114;SDS011;41988;53.020;6.576;2023-01-23T18:24:04;21.57;;;13.40;;
56114;SDS011;41988;53.020;6.576;2023-01-23T18:26:52;23.47;;;13.73;;
56114;SDS011;41988;53.020;6.576;2023-01-23T18:39:13;16.23;;;11.17;;
56114;SDS011;41988;53.020;6.576;2023-01-23T18:42:21;46.77;;;25.50;;
56114;SDS011;41988;53.020;6.576;2023-01-23T18:45:10;25.00;;;15.53;;
56114;SDS011;41988;53.020;6.576;2023-01-23T18:47:55;19.17;;;11.50;;